Afton, Michigan
Current Conditions -  °F | °C
As of 2:36 PM on Saturday 25 Oct 2014 (Local Time) from KSLH Reporting Station
Overcast Overcast  
Wind Chill: 56°   Ceiling: 5500
Heat Index: 56°   Visibility: 10mi
Dew Point: 38°   Wind: 21mph
Humidity: 50%   Direction: 280°W
Pressure: 29.67"   Gusts: 25mph
Location:  45.36°N, 84.47°W
Report Text: KSLH 251836Z AUTO 28018G22KT 10SM SCT048 OVC055 13/03 A2967 RMK AO2 T01350032
Loading
Personal Weather Stations






























Interactive Weather Map
Tropical Storm Tracking
New forecast layout! Learn more

10-Day Weather Forecast

Advertisements
Track Severe Weather on mobile